Time;durP1;ratioP1;P1;durP2;ratioP2;P2;SDS_P1;SDS_P2;PMS_P1;PMS_P2;Temp;Humidity;BMP_temperature;BMP_pressure;BME280_temperature;BME280_humidity;BME280_pressure;Samples;Min_cycle;Max_cycle;Signal;HPM_P1;HPM_P2
2022/08/29 00:02:16;;;;;;;6.32;2.60;;;17.50;99.90;;;;;;5055174;28;20029;-69
2022/08/29 00:04:41;;;;;;;5.28;2.72;;;17.50;99.90;;;;;;5052416;28;20086;-68
2022/08/29 00:07:07;;;;;;;5.45;2.55;;;17.40;99.90;;;;;;5046065;28;20448;-69
2022/08/29 00:09:33;;;;;;;5.25;2.70;;;17.40;99.90;;;;;;5051973;28;20028;-68
2022/08/29 00:11:58;;;;;;;4.18;2.90;;;17.40;99.90;;;;;;5059010;28;20153;-68
2022/08/29 00:14:25;;;;;;;5.05;2.80;;;17.30;99.90;;;;;;5054732;28;20102;-68
2022/08/29 00:16:50;;;;;;;6.90;2.63;;;17.40;99.90;;;;;;5054415;28;20036;-68
2022/08/29 00:19:16;;;;;;;8.55;3.05;;;17.30;99.90;;;;;;5056861;28;20074;-69
2022/08/29 00:21:42;;;;;;;4.35;2.78;;;17.30;99.90;;;;;;5055614;28;20035;-68
2022/08/29 00:24:07;;;;;;;8.25;2.90;;;17.20;99.90;;;;;;5055711;28;20493;-68
2022/08/29 00:26:34;;;;;;;6.35;2.97;;;17.20;99.90;;;;;;5052513;28;20083;-68
2022/08/29 00:29:00;;;;;;;4.45;2.85;;;17.20;99.90;;;;;;5057692;28;20013;-68
2022/08/29 00:31:26;;;;;;;6.07;3.38;;;17.10;99.90;;;;;;5053998;28;20400;-68
2022/08/29 00:33:52;;;;;;;5.10;3.10;;;17.10;99.90;;;;;;5035960;28;20486;-68
2022/08/29 00:36:17;;;;;;;6.25;2.67;;;17.10;99.90;;;;;;5025725;28;20053;-68
2022/08/29 00:38:46;;;;;;;3.80;2.72;;;17.10;99.90;;;;;;5046830;28;20076;-68
2022/08/29 00:41:12;;;;;;;5.68;2.85;;;17.10;99.90;;;;;;5047809;28;20087;-68
2022/08/29 00:43:37;;;;;;;5.25;2.45;;;17.00;99.90;;;;;;5052372;28;20033;-68
2022/08/29 00:46:03;;;;;;;9.05;2.95;;;17.00;99.90;;;;;;5052541;28;20378;-68
2022/08/29 00:48:29;;;;;;;6.55;2.88;;;17.00;99.90;;;;;;5052182;28;20029;-68
2022/08/29 00:51:00;;;;;;;6.15;2.88;;;17.00;99.90;;;;;;5029848;28;20131;-68
2022/08/29 00:53:30;;;;;;;4.18;2.60;;;16.90;99.90;;;;;;5056084;28;20027;-68
2022/08/29 00:55:57;;;;;;;4.63;2.97;;;16.90;99.90;;;;;;5052146;28;20040;-68
2022/08/29 00:58:33;;;;;;;4.88;3.00;;;16.80;99.90;;;;;;5034739;28;20021;-68
2022/08/29 01:00:59;;;;;;;5.10;3.05;;;16.80;99.90;;;;;;5047667;28;20125;-68
2022/08/29 01:03:26;;;;;;;7.35;3.28;;;16.70;99.90;;;;;;5058526;28;20060;-68
2022/08/29 01:05:52;;;;;;;6.13;2.75;;;16.70;99.90;;;;;;5047944;28;20579;-68
2022/08/29 01:08:18;;;;;;;5.65;2.60;;;16.70;99.90;;;;;;5031262;28;20060;-68
2022/08/29 01:13:35;;;;;;;4.35;2.72;;;16.60;99.90;;;;;;5053055;28;20048;-68
2022/08/29 01:16:02;;;;;;;7.30;2.92;;;16.50;99.90;;;;;;5054990;28;20024;-68
2022/08/29 01:18:32;;;;;;;7.05;3.20;;;16.60;99.90;;;;;;5057035;28;20066;-68
2022/08/29 01:21:22;;;;;;;5.70;3.05;;;16.60;99.90;;;;;;5059804;28;20017;-68
2022/08/29 01:24:12;;;;;;;3.95;2.70;;;16.60;99.90;;;;;;5055466;28;20041;-67
2022/08/29 01:26:38;;;;;;;7.38;2.92;;;16.60;99.90;;;;;;5031865;28;20440;-67
2022/08/29 01:29:04;;;;;;;4.03;2.38;;;16.60;99.90;;;;;;5052914;28;20033;-67
2022/08/29 01:31:39;;;;;;;4.97;2.83;;;16.60;99.90;;;;;;5047943;28;20108;-67
2022/08/29 01:34:04;;;;;;;5.82;2.85;;;16.50;99.90;;;;;;5053896;28;20098;-67
2022/08/29 01:36:42;;;;;;;4.18;3.30;;;16.50;99.90;;;;;;5051036;28;20425;-67
2022/08/29 01:39:07;;;;;;;9.15;3.53;;;16.40;99.90;;;;;;5054717;28;20033;-67
2022/08/29 01:41:34;;;;;;;6.30;2.75;;;16.40;99.90;;;;;;5052964;28;20036;-67
2022/08/29 01:44:00;;;;;;;3.75;2.88;;;16.40;99.90;;;;;;5034480;28;20028;-67
2022/08/29 01:46:33;;;;;;;6.90;3.58;;;16.30;99.90;;;;;;5051811;28;20052;-67
2022/08/29 01:49:01;;;;;;;4.88;3.30;;;16.20;99.90;;;;;;5056504;28;20071;-67
2022/08/29 01:51:26;;;;;;;3.80;2.63;;;16.20;99.90;;;;;;5059183;28;20037;-68
2022/08/29 01:53:52;;;;;;;3.55;3.15;;;16.10;99.90;;;;;;5054889;28;20030;-67
2022/08/29 01:56:23;;;;;;;7.45;3.13;;;16.20;99.90;;;;;;5052826;28;20032;-67
2022/08/29 01:58:50;;;;;;;9.30;3.45;;;16.20;99.90;;;;;;5050257;28;20017;-67
2022/08/29 02:01:20;;;;;;;3.97;3.40;;;16.20;99.90;;;;;;5036442;28;20465;-68
2022/08/29 02:03:46;;;;;;;6.60;2.97;;;16.20;99.90;;;;;;5055755;28;20027;-67
2022/08/29 02:06:12;;;;;;;6.57;3.03;;;16.20;99.90;;;;;;5057848;28;20033;-68
2022/08/29 02:08:40;;;;;;;3.83;3.30;;;16.10;99.90;;;;;;5048313;28;20024;-67
2022/08/29 02:11:08;;;;;;;7.20;3.65;;;16.20;99.90;;;;;;5055008;28;20051;-68
2022/08/29 02:13:40;;;;;;;5.18;3.50;;;16.10;99.90;;;;;;5054766;28;20021;-67
2022/08/29 02:16:06;;;;;;;7.68;3.90;;;16.10;99.90;;;;;;5030604;28;20022;-67
2022/08/29 02:18:32;;;;;;;7.07;3.67;;;16.10;99.90;;;;;;5058274;28;20024;-67
2022/08/29 02:20:59;;;;;;;7.15;3.65;;;16.10;99.90;;;;;;5060600;28;20024;-68
2022/08/29 02:23:25;;;;;;;8.38;3.13;;;16.10;99.90;;;;;;5054614;28;20530;-67
2022/08/29 02:25:52;;;;;;;6.75;3.47;;;16.00;99.90;;;;;;5060985;28;20104;-67
2022/08/29 02:28:19;;;;;;;7.75;3.72;;;16.00;99.90;;;;;;5057212;28;20016;-68
2022/08/29 02:30:48;;;;;;;6.78;3.28;;;16.00;99.90;;;;;;5053720;28;20075;-67
2022/08/29 02:33:15;;;;;;;4.57;3.40;;;16.00;99.90;;;;;;5049675;28;20082;-67
2022/08/29 02:35:41;;;;;;;5.72;3.38;;;16.00;99.90;;;;;;5059829;28;20511;-67
2022/08/29 02:38:07;;;;;;;6.05;3.03;;;16.00;99.90;;;;;;5057405;28;20029;-67
2022/08/29 02:40:33;;;;;;;4.20;3.10;;;16.00;99.90;;;;;;5052728;28;20018;-67
2022/08/29 02:43:00;;;;;;;5.63;3.20;;;15.90;99.90;;;;;;5051382;28;20042;-67
2022/08/29 02:45:26;;;;;;;10.10;3.83;;;15.90;99.90;;;;;;5058616;28;20024;-67
2022/08/29 02:47:52;;;;;;;5.18;3.22;;;15.90;99.90;;;;;;5052005;28;20067;-67
2022/08/29 02:50:19;;;;;;;8.57;3.67;;;15.90;99.90;;;;;;5059976;28;20017;-67
2022/08/29 02:52:44;;;;;;;7.32;3.00;;;15.90;99.90;;;;;;5058824;28;20082;-67
2022/08/29 02:55:16;;;;;;;5.05;2.92;;;15.90;99.90;;;;;;5046621;28;20231;-67
2022/08/29 02:57:42;;;;;;;4.82;3.00;;;15.80;99.90;;;;;;5054519;28;20120;-67
2022/08/29 03:00:15;;;;;;;3.63;3.20;;;15.80;99.90;;;;;;5051570;28;20569;-68
2022/08/29 03:02:42;;;;;;;8.05;3.75;;;15.70;99.90;;;;;;5058251;28;20040;-66
2022/08/29 03:05:09;;;;;;;6.07;2.90;;;15.70;99.90;;;;;;5030303;28;20032;-67
2022/08/29 03:07:35;;;;;;;4.25;3.28;;;15.70;99.90;;;;;;5050863;28;20029;-67
2022/08/29 03:10:01;;;;;;;8.30;3.47;;;15.70;99.90;;;;;;5056752;28;20032;-67
2022/08/29 03:12:27;;;;;;;5.97;3.50;;;15.60;99.90;;;;;;5055611;28;20090;-67
2022/08/29 03:14:53;;;;;;;7.20;4.03;;;15.60;99.90;;;;;;5044308;28;20041;-67
2022/08/29 03:17:19;;;;;;;7.75;4.10;;;15.60;99.90;;;;;;5053385;28;20060;-67
2022/08/29 03:19:44;;;;;;;6.10;3.40;;;15.60;99.90;;;;;;5043699;28;20048;-67
2022/08/29 03:22:10;;;;;;;3.63;2.90;;;15.50;99.90;;;;;;5055504;28;20495;-67
2022/08/29 03:24:36;;;;;;;5.28;3.33;;;15.50;99.90;;;;;;5050003;28;20143;-67
2022/08/29 03:27:03;;;;;;;7.80;3.63;;;15.50;99.90;;;;;;5049438;28;20112;-67
2022/08/29 03:29:29;;;;;;;4.82;3.15;;;15.50;99.90;;;;;;5053116;28;20025;-67
2022/08/29 03:31:57;;;;;;;4.93;3.50;;;15.40;99.90;;;;;;5055879;28;20044;-67
2022/08/29 03:34:23;;;;;;;6.95;4.20;;;15.30;99.90;;;;;;5050130;28;20104;-67
2022/08/29 03:36:49;;;;;;;5.68;3.50;;;15.30;99.90;;;;;;5052895;28;20063;-67
2022/08/29 03:39:15;;;;;;;8.30;3.83;;;15.30;99.90;;;;;;5054995;28;21818;-67
2022/08/29 03:41:42;;;;;;;4.65;3.08;;;15.30;99.90;;;;;;5026641;28;20037;-67
2022/08/29 03:44:07;;;;;;;5.72;3.20;;;15.30;99.90;;;;;;5054479;28;20111;-67
2022/08/29 03:46:35;;;;;;;6.45;3.67;;;15.30;99.90;;;;;;5043355;28;20116;-67
2022/08/29 03:49:01;;;;;;;6.03;3.67;;;15.20;99.90;;;;;;5050648;28;20021;-67
2022/08/29 03:51:26;;;;;;;4.50;3.97;;;15.20;99.90;;;;;;5051244;28;20512;-67
2022/08/29 03:53:53;;;;;;;7.93;4.10;;;15.30;99.90;;;;;;5043222;28;20112;-67
2022/08/29 03:56:19;;;;;;;6.03;4.90;;;15.30;99.90;;;;;;5040556;28;20795;-67
2022/08/29 03:58:46;;;;;;;7.22;4.10;;;15.30;99.90;;;;;;5038159;28;20025;-67
2022/08/29 04:01:12;;;;;;;5.65;4.18;;;15.30;99.90;;;;;;5044360;28;20052;-67
2022/08/29 04:03:38;;;;;;;5.75;4.75;;;15.30;99.90;;;;;;5036789;28;20056;-67
2022/08/29 04:06:04;;;;;;;7.10;4.68;;;15.30;99.90;;;;;;5043555;28;20024;-67
2022/08/29 04:08:30;;;;;;;5.82;4.70;;;15.30;99.90;;;;;;5038152;28;20117;-67
2022/08/29 04:10:56;;;;;;;7.05;4.85;;;15.30;99.90;;;;;;5044630;28;20108;-66
2022/08/29 04:13:21;;;;;;;6.85;4.53;;;15.30;99.90;;;;;;5045148;28;20461;-67
2022/08/29 04:15:47;;;;;;;7.07;4.70;;;15.30;99.90;;;;;;5047669;28;20041;-67
2022/08/29 04:18:13;;;;;;;6.95;4.45;;;15.30;99.90;;;;;;5028788;28;20146;-67
2022/08/29 04:20:43;;;;;;;6.85;4.55;;;15.30;99.90;;;;;;5045368;28;20072;-67
2022/08/29 04:23:13;;;;;;;7.28;4.50;;;15.30;99.90;;;;;;5041677;28;20074;-67
2022/08/29 04:25:41;;;;;;;7.78;4.43;;;15.30;99.90;;;;;;5029292;28;20064;-67
2022/08/29 04:28:10;;;;;;;7.00;4.70;;;15.30;99.90;;;;;;5044562;28;20033;-66
2022/08/29 04:30:38;;;;;;;6.85;4.97;;;15.30;99.90;;;;;;5041530;28;20044;-67
2022/08/29 04:33:04;;;;;;;7.78;4.60;;;15.30;99.90;;;;;;5046416;28;20029;-67
2022/08/29 04:35:30;;;;;;;7.28;4.88;;;15.30;99.90;;;;;;5036747;28;20026;-67
2022/08/29 04:37:56;;;;;;;5.85;4.35;;;15.30;99.90;;;;;;5043140;28;20056;-67
2022/08/29 04:40:22;;;;;;;9.90;4.82;;;15.40;99.90;;;;;;5044876;28;20033;-67
2022/08/29 04:42:48;;;;;;;7.53;4.55;;;15.40;99.90;;;;;;5043704;28;20172;-68
2022/08/29 04:45:17;;;;;;;8.63;4.25;;;15.40;99.90;;;;;;5049626;28;20037;-67
2022/08/29 04:47:44;;;;;;;5.97;4.72;;;15.40;99.90;;;;;;5044725;28;20017;-67
2022/08/29 04:50:13;;;;;;;5.40;4.78;;;15.30;99.90;;;;;;5049325;28;20029;-68
2022/08/29 04:52:40;;;;;;;11.02;4.65;;;15.30;99.90;;;;;;5051376;28;20025;-68
2022/08/29 04:55:07;;;;;;;8.27;5.22;;;15.30;99.90;;;;;;5048892;28;20033;-67
2022/08/29 04:57:34;;;;;;;7.20;4.93;;;15.20;99.90;;;;;;5044044;28;20048;-67
2022/08/29 05:00:00;;;;;;;8.63;4.85;;;15.20;99.90;;;;;;5041871;28;20383;-67
2022/08/29 05:02:27;;;;;;;12.13;5.65;;;15.30;99.90;;;;;;5047552;28;20021;-71
2022/08/29 05:04:53;;;;;;;9.25;5.38;;;15.30;99.90;;;;;;5052369;28;20029;-67
2022/08/29 05:07:25;;;;;;;9.30;5.28;;;15.30;99.90;;;;;;5030145;28;20033;-68
2022/08/29 05:10:21;;;;;;;7.90;5.10;;;15.30;99.90;;;;;;5044661;28;20033;-68
2022/08/29 05:12:47;;;;;;;7.63;5.10;;;15.30;99.90;;;;;;5029189;28;20103;-68
2022/08/29 05:15:15;;;;;;;7.82;5.03;;;15.30;99.90;;;;;;5051264;28;20029;-70
2022/08/29 05:17:41;;;;;;;11.48;6.25;;;15.30;99.90;;;;;;5052333;28;20025;-68
2022/08/29 05:20:07;;;;;;;8.00;5.97;;;15.30;99.90;;;;;;5043533;28;20033;-69
2022/08/29 05:22:33;;;;;;;8.95;5.72;;;15.20;99.90;;;;;;5051751;28;20021;-70
2022/08/29 05:25:01;;;;;;;6.82;5.40;;;15.20;99.90;;;;;;5053007;28;20052;-67
2022/08/29 05:27:26;;;;;;;7.93;5.38;;;15.30;99.90;;;;;;5050227;28;20444;-67
2022/08/29 05:29:52;;;;;;;9.57;5.32;;;15.30;99.90;;;;;;5040295;28;20109;-68
2022/08/29 05:32:20;;;;;;;10.95;5.65;;;15.30;99.90;;;;;;5045183;28;20040;-67
2022/08/29 05:34:47;;;;;;;12.07;6.30;;;15.30;99.90;;;;;;5051698;28;20013;-67
2022/08/29 05:37:17;;;;;;;6.82;5.25;;;15.30;99.90;;;;;;5046591;28;20371;-67
2022/08/29 05:39:43;;;;;;;13.45;6.60;;;15.20;99.90;;;;;;5038293;28;20024;-67
2022/08/29 05:42:11;;;;;;;10.15;5.82;;;15.30;99.90;;;;;;5027905;28;20576;-75
2022/08/29 05:44:37;;;;;;;9.30;6.78;;;15.30;99.90;;;;;;5049095;28;20036;-67
2022/08/29 05:47:05;;;;;;;11.88;6.28;;;15.40;99.90;;;;;;5042747;28;20484;-67
2022/08/29 05:49:31;;;;;;;10.75;5.85;;;15.40;99.90;;;;;;5045116;28;20362;-67
2022/08/29 05:51:59;;;;;;;8.95;5.68;;;15.40;99.90;;;;;;5042201;28;20030;-67
2022/08/29 05:54:25;;;;;;;10.32;4.60;;;15.50;99.90;;;;;;5045966;28;20052;-67
2022/08/29 05:56:51;;;;;;;10.73;5.00;;;15.50;99.90;;;;;;5047224;28;20108;-67
2022/08/29 05:59:17;;;;;;;8.02;4.90;;;15.40;99.90;;;;;;5045544;28;20112;-67
2022/08/29 06:01:45;;;;;;;7.38;5.10;;;15.50;99.90;;;;;;5042377;28;20021;-67
2022/08/29 06:04:10;;;;;;;7.05;5.63;;;15.50;99.90;;;;;;5046769;28;20055;-68
2022/08/29 06:06:38;;;;;;;8.50;5.97;;;15.50;99.90;;;;;;5046082;28;20021;-67
2022/08/29 06:09:03;;;;;;;12.77;6.00;;;15.60;99.90;;;;;;5041113;28;20032;-68
2022/08/29 06:11:31;;;;;;;9.35;6.18;;;15.50;99.90;;;;;;5046758;28;20044;-68
2022/08/29 06:13:58;;;;;;;9.20;6.25;;;15.50;99.90;;;;;;5043248;28;20017;-69
2022/08/29 06:16:26;;;;;;;7.68;5.45;;;15.50;99.90;;;;;;5046376;28;20183;-69
2022/08/29 06:18:52;;;;;;;8.60;5.88;;;15.60;99.90;;;;;;5047372;28;20017;-69
2022/08/29 06:21:18;;;;;;;8.32;6.30;;;15.60;99.90;;;;;;5045511;28;20695;-69
2022/08/29 06:23:45;;;;;;;8.82;6.43;;;15.60;99.90;;;;;;5042087;28;20029;-69
2022/08/29 06:26:12;;;;;;;8.68;6.93;;;15.70;99.90;;;;;;5043836;28;20099;-69
2022/08/29 06:28:41;;;;;;;7.68;6.05;;;15.80;99.90;;;;;;5039603;28;20075;-69
2022/08/29 06:31:14;;;;;;;12.77;7.28;;;15.80;99.90;;;;;;5041757;28;20017;-70
2022/08/29 06:33:40;;;;;;;;;;;15.80;99.90;;;;;;5044378;28;20536;-69
2022/08/29 06:36:07;;;;;;;11.20;7.07;;;15.90;99.90;;;;;;5042769;28;19909;-69
2022/08/29 06:38:34;;;;;;;9.52;7.18;;;15.90;99.90;;;;;;5044315;28;20033;-69
2022/08/29 06:41:04;;;;;;;11.25;8.23;;;16.00;99.90;;;;;;5049328;28;20552;-69
2022/08/29 06:43:30;;;;;;;12.68;8.27;;;16.00;99.90;;;;;;5049445;28;20025;-69
2022/08/29 06:45:56;;;;;;;12.02;7.90;;;16.10;99.90;;;;;;5027626;28;20036;-69
2022/08/29 06:48:22;;;;;;;12.48;7.95;;;16.10;99.90;;;;;;5041316;28;20024;-69
2022/08/29 06:50:48;;;;;;;12.40;7.22;;;16.20;99.90;;;;;;5033705;28;20485;-69
2022/08/29 06:53:13;;;;;;;13.27;9.43;;;16.10;99.90;;;;;;5043432;28;20477;-70
2022/08/29 06:55:39;;;;;;;16.17;8.48;;;16.20;99.90;;;;;;5043935;28;20040;-69
2022/08/29 06:58:05;;;;;;;15.15;8.50;;;16.20;99.90;;;;;;5046127;28;20116;-69
2022/08/29 07:00:31;;;;;;;12.57;8.90;;;16.30;99.90;;;;;;5041269;28;20049;-69
2022/08/29 07:02:57;;;;;;;13.38;8.95;;;16.30;99.90;;;;;;5039320;28;20104;-69
2022/08/29 07:05:23;;;;;;;9.75;7.32;;;16.30;99.90;;;;;;5045190;28;20059;-72
2022/08/29 07:07:50;;;;;;;13.27;7.93;;;16.30;99.90;;;;;;5049144;28;20021;-70
2022/08/29 07:10:17;;;;;;;12.95;6.97;;;16.30;99.90;;;;;;5055805;28;20025;-69
2022/08/29 07:12:42;;;;;;;13.90;8.05;;;16.40;99.90;;;;;;5051604;28;20120;-69
2022/08/29 07:15:08;;;;;;;11.90;6.80;;;16.30;99.90;;;;;;5040674;28;20560;-70
2022/08/29 07:17:34;;;;;;;11.43;7.07;;;16.40;99.90;;;;;;5044320;28;20029;-70
2022/08/29 07:20:00;;;;;;;10.02;6.10;;;16.40;99.90;;;;;;5034584;28;20693;-69
2022/08/29 07:22:26;;;;;;;12.45;6.28;;;16.40;99.90;;;;;;5043477;28;20021;-69
2022/08/29 07:24:54;;;;;;;11.48;7.22;;;16.40;99.90;;;;;;5060498;28;20112;-70
2022/08/29 07:27:20;;;;;;;10.75;5.72;;;16.50;99.90;;;;;;5053708;28;20057;-70
2022/08/29 07:29:46;;;;;;;13.57;6.20;;;16.60;99.90;;;;;;5047444;28;20060;-69
2022/08/29 07:32:11;;;;;;;15.77;6.50;;;16.60;99.90;;;;;;5047877;28;20037;-70
2022/08/29 07:34:37;;;;;;;10.35;6.28;;;16.70;99.90;;;;;;5039530;28;20032;-70
2022/08/29 07:37:03;;;;;;;12.18;6.53;;;16.80;99.90;;;;;;5044885;28;20041;-72
2022/08/29 07:39:30;;;;;;;10.35;6.05;;;16.80;99.90;;;;;;5042269;28;20021;-70
2022/08/29 07:41:57;;;;;;;8.93;5.72;;;16.90;99.90;;;;;;5052391;28;20035;-70
2022/08/29 07:44:23;;;;;;;11.00;5.85;;;17.10;99.90;;;;;;5038824;28;20021;-70
2022/08/29 07:46:57;;;;;;;12.57;5.82;;;17.10;99.90;;;;;;5031155;28;20078;-70
2022/08/29 07:49:24;;;;;;;11.73;5.60;;;17.20;99.90;;;;;;5058342;28;20158;-70
2022/08/29 07:51:53;;;;;;;9.52;5.20;;;17.40;99.90;;;;;;5057623;28;20041;-70
2022/08/29 07:54:20;;;;;;;9.75;4.45;;;17.50;99.90;;;;;;5057074;28;20023;-70
2022/08/29 07:56:47;;;;;;;7.70;4.60;;;17.60;99.90;;;;;;5051716;28;20103;-71
2022/08/29 07:59:14;;;;;;;9.02;4.45;;;17.70;99.90;;;;;;5043766;28;20051;-70
2022/08/29 08:01:40;;;;;;;9.88;4.43;;;17.60;99.90;;;;;;5039471;28;20029;-71
2022/08/29 08:04:06;;;;;;;7.65;3.35;;;17.60;99.90;;;;;;5040753;28;20028;-70
2022/08/29 08:06:33;;;;;;;10.63;3.70;;;17.80;99.90;;;;;;5046103;28;20036;-71
2022/08/29 08:08:59;;;;;;;12.23;4.05;;;17.90;99.90;;;;;;5042202;28;20033;-70
2022/08/29 08:11:26;;;;;;;11.93;3.55;;;18.10;99.90;;;;;;5041981;28;20067;-71
2022/08/29 08:13:53;;;;;;;4.72;2.92;;;18.20;99.90;;;;;;5053710;28;20536;-70
2022/08/29 08:16:21;;;;;;;5.88;3.55;;;18.30;99.90;;;;;;5036393;28;20020;-71
2022/08/29 08:18:47;;;;;;;7.65;3.72;;;18.40;99.90;;;;;;5034802;28;20505;-71
2022/08/29 08:21:14;;;;;;;7.97;3.72;;;18.50;99.90;;;;;;5046040;28;20025;-70
2022/08/29 08:23:40;;;;;;;9.07;3.55;;;18.60;99.90;;;;;;5050487;28;20025;-71
2022/08/29 08:26:07;;;;;;;10.70;3.20;;;18.70;99.90;;;;;;5057223;28;20033;-70
2022/08/29 08:28:33;;;;;;;6.65;3.00;;;18.90;99.90;;;;;;5042665;28;20345;-71
2022/08/29 08:31:00;;;;;;;10.00;3.55;;;19.00;99.90;;;;;;5054482;28;20029;-71
2022/08/29 08:33:26;;;;;;;9.57;3.35;;;19.10;99.90;;;;;;5047421;28;20036;-70
2022/08/29 08:35:52;;;;;;;7.68;3.22;;;19.20;99.90;;;;;;5049846;28;20486;-70
2022/08/29 08:38:18;;;;;;;7.60;3.70;;;19.30;99.90;;;;;;5043036;28;20017;-70
2022/08/29 08:41:05;;;;;;;10.68;2.97;;;19.40;99.90;;;;;;5040880;28;20529;-70
2022/08/29 08:43:52;;;;;;;7.68;2.83;;;19.60;99.90;;;;;;5049236;28;20032;-71
2022/08/29 08:46:26;;;;;;;10.25;3.00;;;19.60;99.90;;;;;;5056379;28;20020;-72
2022/08/29 08:48:54;;;;;;;8.18;3.17;;;19.70;99.90;;;;;;5046313;28;20037;-71
2022/08/29 08:51:26;;;;;;;5.63;2.72;;;19.70;99.90;;;;;;5033825;28;20487;-70
2022/08/29 08:53:55;;;;;;;8.68;2.80;;;19.70;99.90;;;;;;5049463;28;20477;-70
2022/08/29 08:56:37;;;;;;;11.50;3.65;;;19.60;99.90;;;;;;5037244;28;20017;-71
2022/08/29 08:59:15;;;;;;;10.55;3.30;;;19.80;99.90;;;;;;5033360;28;20040;-70
2022/08/29 09:01:46;;;;;;;8.30;3.15;;;19.80;99.90;;;;;;5042907;28;20125;-70
2022/08/29 09:04:36;;;;;;;6.60;2.85;;;20.00;99.90;;;;;;5038313;28;20239;-71
2022/08/29 09:07:10;;;;;;;9.35;3.60;;;20.00;99.90;;;;;;5028202;28;20179;-71
2022/08/29 09:10:01;;;;;;;9.45;3.30;;;20.10;99.90;;;;;;5041355;28;20029;-72
2022/08/29 09:12:51;;;;;;;7.00;3.50;;;20.10;99.90;;;;;;5045686;28;20045;-71
2022/08/29 09:15:22;;;;;;;7.88;3.38;;;20.10;99.90;;;;;;5045154;28;20136;-71
2022/08/29 09:18:09;;;;;;;7.53;3.63;;;20.30;99.90;;;;;;5050530;28;20070;-72
2022/08/29 09:20:38;;;;;;;10.32;3.50;;;20.40;99.90;;;;;;5041320;28;20083;-71
2022/08/29 09:23:34;;;;;;;7.13;3.25;;;20.50;99.90;;;;;;5042818;28;20083;-71
2022/08/29 09:26:00;;;;;;;8.35;3.00;;;20.60;99.90;;;;;;5046835;28;20039;-73
2022/08/29 09:28:26;;;;;;;5.38;3.17;;;20.80;99.90;;;;;;5042557;28;20013;-72
2022/08/29 09:31:13;;;;;;;9.60;3.97;;;20.90;99.90;;;;;;5048230;28;20496;-72
2022/08/29 09:33:42;;;;;;;6.93;2.83;;;20.80;99.90;;;;;;5042314;28;20024;-71
2022/08/29 09:36:11;;;;;;;6.90;3.17;;;20.90;99.90;;;;;;5047428;28;20029;-73
2022/08/29 09:38:37;;;;;;;6.63;3.05;;;21.00;99.90;;;;;;5043012;28;20029;-72
2022/08/29 09:41:09;;;;;;;4.93;2.70;;;21.10;99.90;;;;;;5046826;28;20396;-72
2022/08/29 09:43:37;;;;;;;8.23;2.80;;;21.10;99.90;;;;;;5045419;28;20482;-72
2022/08/29 09:46:06;;;;;;;6.82;2.80;;;21.30;99.90;;;;;;5050993;28;20040;-72
2022/08/29 09:48:33;;;;;;;5.30;3.15;;;21.50;99.90;;;;;;5042613;28;20032;-72
2022/08/29 09:51:19;;;;;;;7.20;3.50;;;21.60;99.90;;;;;;5041676;28;20025;-71
2022/08/29 09:53:44;;;;;;;9.93;3.38;;;21.80;99.90;;;;;;5049209;28;20032;-72
2022/08/29 09:56:23;;;;;;;5.07;3.00;;;21.80;99.90;;;;;;5041405;28;20029;-72
2022/08/29 09:59:17;;;;;;;7.53;3.20;;;21.80;99.90;;;;;;5045888;28;20029;-72
2022/08/29 10:01:43;;;;;;;6.13;2.88;;;21.70;99.90;;;;;;5049702;28;20032;-73
2022/08/29 10:04:09;;;;;;;7.60;4.03;;;21.70;99.90;;;;;;5047480;28;20385;-71
2022/08/29 10:06:40;;;;;;;6.72;3.38;;;21.80;99.90;;;;;;5042239;28;20052;-72
2022/08/29 10:09:22;;;;;;;6.95;3.20;;;21.90;99.90;;;;;;5043428;28;20368;-72
2022/08/29 10:11:54;;;;;;;7.47;3.50;;;22.00;99.90;;;;;;5044956;28;20037;-71
2022/08/29 10:14:33;;;;;;;7.72;3.58;;;22.20;99.90;;;;;;5048548;28;20060;-71
2022/08/29 10:18:19;;;;;;;6.03;3.42;;;22.10;99.90;;;;;;5060507;28;20054;-71
2022/08/29 10:19:48;;;;;;;10.93;3.92;;;22.20;99.90;;;;;;5054040;28;20490;-71
2022/08/29 10:22:50;;;;;;;7.85;3.95;;;22.20;99.80;;;;;;5044086;28;20037;-72
2022/08/29 10:25:22;;;;;;;9.63;3.53;;;22.10;99.90;;;;;;5046139;28;20036;-72
2022/08/29 10:27:59;;;;;;;6.20;3.40;;;22.30;99.90;;;;;;5051473;28;20402;-71
2022/08/29 10:30:49;;;;;;;10.20;3.85;;;22.40;99.90;;;;;;5040236;28;20136;-72
2022/08/29 10:33:34;;;;;;;4.85;2.90;;;22.50;99.90;;;;;;5046571;28;20029;-71
2022/08/29 10:36:09;;;;;;;5.53;3.40;;;22.50;99.90;;;;;;5042749;28;20088;-72
2022/08/29 10:38:45;;;;;;;9.20;4.28;;;22.30;99.80;;;;;;5043392;28;20037;-72
2022/08/29 10:41:43;;;;;;;7.40;3.25;;;22.30;99.90;;;;;;5049787;28;20079;-71
2022/08/29 10:44:25;;;;;;;7.60;3.65;;;22.40;99.90;;;;;;5036340;28;20082;-71
2022/08/29 10:46:51;;;;;;;8.73;3.30;;;22.80;99.90;;;;;;5047903;28;20070;-71
2022/08/29 10:49:43;;;;;;;8.13;3.60;;;23.00;99.90;;;;;;5045373;28;20033;-71
2022/08/29 10:52:25;;;;;;;7.67;3.50;;;23.20;99.10;;;;;;5041813;28;20037;-71
2022/08/29 10:55:15;;;;;;;7.90;2.97;;;23.20;97.90;;;;;;5025946;28;20317;-71
2022/08/29 10:58:16;;;;;;;7.80;3.58;;;23.40;99.90;;;;;;5045752;28;20128;-72
2022/08/29 11:00:47;;;;;;;9.57;4.72;;;23.40;99.70;;;;;;5045758;28;20036;-71
2022/08/29 11:03:19;;;;;;;7.18;3.78;;;23.50;97.30;;;;;;5046493;28;20048;-71
2022/08/29 11:05:52;;;;;;;7.05;3.85;;;23.40;99.30;;;;;;5032231;28;20033;-73
2022/08/29 11:08:28;;;;;;;8.57;4.00;;;23.70;98.50;;;;;;5036795;28;20110;-72
2022/08/29 11:10:54;;;;;;;8.10;3.60;;;23.40;99.20;;;;;;5050941;28;20031;-72
2022/08/29 11:13:42;;;;;;;7.78;3.63;;;23.50;98.20;;;;;;5041659;28;20120;-72
2022/08/29 11:16:28;;;;;;;10.98;4.85;;;23.40;97.60;;;;;;5037143;28;20474;-71
2022/08/29 11:18:53;;;;;;;9.48;4.03;;;23.60;98.20;;;;;;5038196;28;20387;-73
2022/08/29 11:21:27;;;;;;;6.45;3.92;;;23.80;97.70;;;;;;5049532;28;20033;-71
2022/08/29 11:23:54;;;;;;;8.82;4.07;;;23.80;97.10;;;;;;5040509;28;20077;-72
2022/08/29 11:26:30;;;;;;;13.75;4.10;;;24.00;97.50;;;;;;5041969;28;20406;-72
2022/08/29 11:28:59;;;;;;;6.22;3.85;;;24.10;97.00;;;;;;5043597;28;20025;-71
2022/08/29 11:31:39;;;;;;;8.82;3.95;;;24.20;96.60;;;;;;5042167;28;20377;-73
2022/08/29 11:34:33;;;;;;;10.13;3.60;;;24.10;97.10;;;;;;5048088;28;20078;-71
2022/08/29 11:37:39;;;;;;;6.90;4.18;;;24.10;96.70;;;;;;5042990;28;20461;-73
2022/08/29 11:40:28;;;;;;;8.25;3.38;;;24.30;97.20;;;;;;5049427;28;20037;-71
2022/08/29 11:42:58;;;;;;;9.88;3.65;;;24.30;97.80;;;;;;5047336;28;20060;-71
2022/08/29 11:45:32;;;;;;;9.15;3.00;;;24.20;96.20;;;;;;5041750;28;20025;-71
2022/08/29 11:48:30;;;;;;;5.97;3.45;;;24.20;96.80;;;;;;5043360;28;20036;-71
2022/08/29 11:50:57;;;;;;;7.82;3.70;;;24.30;96.50;;;;;;5050339;28;20083;-71
2022/08/29 11:53:32;;;;;;;6.32;3.20;;;24.40;95.40;;;;;;5057444;28;20682;-71
2022/08/29 11:56:13;;;;;;;6.38;3.47;;;24.30;96.70;;;;;;5044329;28;20025;-71
2022/08/29 11:58:44;;;;;;;5.70;3.55;;;24.50;96.00;;;;;;5043462;28;20033;-71
2022/08/29 12:01:33;;;;;;;5.68;3.75;;;24.60;97.40;;;;;;5040325;28;20032;-71
2022/08/29 12:03:59;;;;;;;9.98;3.85;;;24.50;95.00;;;;;;5024570;28;20029;-72
2022/08/29 12:06:56;;;;;;;7.72;3.38;;;24.70;96.00;;;;;;5041936;28;20532;-71
2022/08/29 12:09:37;;;;;;;6.63;3.50;;;24.60;96.30;;;;;;5039719;28;20025;-71
2022/08/29 12:12:20;;;;;;;9.02;3.40;;;24.70;96.50;;;;;;5042133;28;20041;-71
2022/08/29 12:14:51;;;;;;;5.93;3.35;;;24.80;95.20;;;;;;5044760;28;20445;-71
2022/08/29 12:17:26;;;;;;;6.60;3.17;;;24.80;94.90;;;;;;5034329;28;20021;-71
2022/08/29 12:20:09;;;;;;;7.38;3.60;;;24.60;95.80;;;;;;5036882;28;20453;-70
2022/08/29 12:22:54;;;;;;;9.40;2.88;;;24.50;94.90;;;;;;5042955;28;20057;-71
2022/08/29 12:25:26;;;;;;;4.85;3.13;;;24.80;94.20;;;;;;5039580;28;20025;-71
2022/08/29 12:27:59;;;;;;;6.57;3.03;;;25.10;94.00;;;;;;5043105;28;20470;-72
2022/08/29 12:30:25;;;;;;;4.32;3.00;;;25.00;94.90;;;;;;5054529;28;20029;-71
2022/08/29 12:33:11;;;;;;;5.93;2.83;;;25.00;96.40;;;;;;5047611;28;20033;-71
2022/08/29 12:36:15;;;;;;;7.00;3.17;;;24.90;96.40;;;;;;5049177;28;20112;-71
2022/08/29 12:39:00;;;;;;;6.82;2.97;;;24.80;94.00;;;;;;5028747;28;20072;-71
2022/08/29 12:41:53;;;;;;;8.20;3.00;;;25.00;95.10;;;;;;5020897;28;20025;-71
2022/08/29 12:44:31;;;;;;;7.55;3.40;;;25.00;93.10;;;;;;5040372;28;20048;-71
2022/08/29 12:47:04;;;;;;;6.55;2.80;;;25.10;93.70;;;;;;5043174;28;20040;-71
2022/08/29 12:49:35;;;;;;;6.40;3.40;;;25.20;93.70;;;;;;5041073;28;20021;-71
2022/08/29 12:52:07;;;;;;;6.32;3.28;;;25.10;93.60;;;;;;5039683;28;20080;-71
2022/08/29 12:54:38;;;;;;;5.43;2.72;;;25.00;94.50;;;;;;5048238;28;20064;-72
2022/08/29 12:57:17;;;;;;;5.68;2.95;;;25.20;94.30;;;;;;5044138;28;20020;-72
2022/08/29 12:59:49;;;;;;;9.90;3.05;;;25.30;93.90;;;;;;5046505;28;20028;-72
2022/08/29 13:02:31;;;;;;;7.05;3.10;;;25.40;93.40;;;;;;5047274;28;20086;-71
2022/08/29 13:04:58;;;;;;;5.38;2.55;;;25.50;93.50;;;;;;5027417;28;20493;-72
2022/08/29 13:07:25;;;;;;;5.05;2.58;;;25.40;93.30;;;;;;5042974;28;20032;-72